Time;durP1;ratioP1;P1;durP2;ratioP2;P2;SDS_P1;SDS_P2;PMS_P1;PMS_P2;Temp;Humidity;BMP_temperature;BMP_pressure;BME280_temperature;BME280_humidity;BME280_pressure;Samples;Min_cycle;Max_cycle;Signal;HPM_P1;HPM_P2
2021/07/14 00:00:09;;;;;;;6.53;4.22;;;;;;;;;;6245933;23;20008;-71
2021/07/14 00:02:35;;;;;;;7.35;4.00;;;;;;;;;;6219223;23;20005;-72
2021/07/14 00:05:05;;;;;;;8.77;4.43;;;;;;;;;;6219077;23;20039;-73
2021/07/14 00:07:31;;;;;;;9.70;4.50;;;;;;;;;;6218820;23;20372;-72
2021/07/14 00:09:58;;;;;;;6.97;3.92;;;;;;;;;;6245633;23;20333;-72
2021/07/14 00:12:25;;;;;;;7.15;4.20;;;;;;;;;;6245975;23;20386;-72
2021/07/14 00:16:59;;;;;;;11.57;4.65;;;;;;;;;;6245956;23;20321;-72
2021/07/14 00:22:06;;;;;;;7.32;3.95;;;;;;;;;;6245515;23;20015;-72
2021/07/14 00:23:20;;;;;;;7.07;4.50;;;;;;;;;;6245940;23;20055;-71
2021/07/14 00:25:47;;;;;;;14.48;4.65;;;;;;;;;;6219189;23;20095;-71
2021/07/14 00:28:15;;;;;;;6.22;4.40;;;;;;;;;;6245764;23;20012;-72
2021/07/14 00:30:48;;;;;;;6.10;4.25;;;;;;;;;;6218885;23;20318;-71
2021/07/14 00:33:14;;;;;;;;;;;;;;;;;;6219546;23;20000;-72
2021/07/14 00:35:40;;;;;;;7.65;4.47;;;;;;;;;;6246749;23;19916;-72
2021/07/14 00:38:07;;;;;;;7.07;4.78;;;;;;;;;;6247498;23;20015;-73
2021/07/14 00:40:33;;;;;;;9.18;4.43;;;;;;;;;;6220626;23;20004;-72
2021/07/14 00:43:00;;;;;;;11.00;4.63;;;;;;;;;;6247645;23;20015;-72
2021/07/14 00:45:27;;;;;;;7.28;4.28;;;;;;;;;;6247517;23;20015;-72
2021/07/14 00:47:56;;;;;;;14.60;5.82;;;;;;;;;;6247506;23;20036;-72
2021/07/14 00:50:23;;;;;;;8.38;5.57;;;;;;;;;;6247572;23;20087;-72
2021/07/14 00:52:50;;;;;;;11.45;7.40;;;;;;;;;;6247497;23;20000;-72
2021/07/14 00:55:16;;;;;;;10.77;6.35;;;;;;;;;;6247862;23;20008;-72
2021/07/14 00:57:42;;;;;;;8.40;5.75;;;;;;;;;;6247447;23;20003;-71
2021/07/14 01:00:11;;;;;;;16.58;6.32;;;;;;;;;;6247461;23;20075;-72
2021/07/14 01:02:37;;;;;;;10.65;7.35;;;;;;;;;;6220356;23;20079;-72
2021/07/14 01:05:05;;;;;;;10.50;7.45;;;;;;;;;;6247461;23;20445;-72
2021/07/14 01:07:32;;;;;;;11.98;7.38;;;;;;;;;;6220497;23;20019;-71
2021/07/14 01:10:03;;;;;;;15.45;8.00;;;;;;;;;;6247611;23;20008;-71
2021/07/14 01:12:53;;;;;;;20.42;8.70;;;;;;;;;;6220563;23;20087;-71
2021/07/14 01:15:20;;;;;;;12.38;8.45;;;;;;;;;;6220352;23;20314;-72
2021/07/14 01:17:49;;;;;;;13.50;7.95;;;;;;;;;;6220448;23;20339;-71
2021/07/14 01:20:17;;;;;;;15.32;9.48;;;;;;;;;;6247315;23;20000;-72
2021/07/14 01:22:54;;;;;;;16.23;8.05;;;;;;;;;;6220196;23;20008;-72
2021/07/14 01:25:27;;;;;;;12.05;7.68;;;;;;;;;;6220389;23;20367;-71
2021/07/14 01:27:58;;;;;;;15.07;8.23;;;;;;;;;;6220461;23;20314;-71
2021/07/14 01:30:24;;;;;;;12.68;7.45;;;;;;;;;;6220271;23;20263;-72
2021/07/14 01:32:52;;;;;;;14.63;8.25;;;;;;;;;;6220093;23;20011;-72
2021/07/14 01:35:21;;;;;;;10.48;7.10;;;;;;;;;;6246895;23;20016;-71
2021/07/14 01:37:49;;;;;;;10.15;7.53;;;;;;;;;;6220169;23;20086;-71
2021/07/14 01:40:16;;;;;;;16.58;7.57;;;;;;;;;;6247082;23;20004;-72
2021/07/14 01:42:45;;;;;;;10.38;6.72;;;;;;;;;;6220189;23;20453;-71
2021/07/14 01:45:12;;;;;;;14.43;7.50;;;;;;;;;;6220068;23;20019;-71
2021/07/14 01:47:40;;;;;;;12.27;6.80;;;;;;;;;;6219506;23;20011;-71
2021/07/14 01:50:07;;;;;;;11.57;7.78;;;;;;;;;;6220020;23;20503;-71
2021/07/14 01:52:33;;;;;;;13.35;6.68;;;;;;;;;;6247338;23;20075;-72
2021/07/14 01:55:02;;;;;;;11.88;6.70;;;;;;;;;;6220133;23;20004;-74
2021/07/14 01:57:29;;;;;;;9.18;6.78;;;;;;;;;;6219899;23;20020;-74
2021/07/14 01:59:56;;;;;;;13.13;6.78;;;;;;;;;;6219923;23;20007;-74
2021/07/14 02:02:26;;;;;;;27.17;8.00;;;;;;;;;;6220096;23;20442;-72
2021/07/14 02:04:53;;;;;;;12.35;6.88;;;;;;;;;;6246710;23;20004;-71
2021/07/14 02:07:24;;;;;;;10.77;6.68;;;;;;;;;;6246919;23;20426;-72
2021/07/14 02:09:51;;;;;;;9.27;5.88;;;;;;;;;;6219880;23;20004;-73
2021/07/14 02:12:22;;;;;;;21.60;5.80;;;;;;;;;;6219731;23;20014;-71
2021/07/14 02:14:54;;;;;;;9.65;5.97;;;;;;;;;;6219771;23;20373;-73
2021/07/14 02:17:22;;;;;;;22.57;6.77;;;;;;;;;;6220125;23;20001;-73
2021/07/14 02:19:57;;;;;;;7.55;5.57;;;;;;;;;;6246699;23;20001;-71
2021/07/14 02:22:23;;;;;;;10.80;6.07;;;;;;;;;;6219675;23;20013;-72
2021/07/14 02:24:49;;;;;;;9.88;6.05;;;;;;;;;;6247038;23;20000;-71
2021/07/14 02:27:17;;;;;;;7.57;5.03;;;;;;;;;;6219817;23;20165;-72
2021/07/14 02:29:43;;;;;;;11.32;5.03;;;;;;;;;;6219635;23;20016;-72
2021/07/14 02:32:13;;;;;;;10.30;5.35;;;;;;;;;;6219616;23;20436;-72
2021/07/14 02:34:40;;;;;;;7.00;5.25;;;;;;;;;;6225542;23;20027;-72
2021/07/14 02:37:10;;;;;;;9.45;5.57;;;;;;;;;;6246972;23;20065;-73
2021/07/14 02:39:36;;;;;;;10.00;5.45;;;;;;;;;;6245003;23;20568;-77
2021/07/14 02:42:10;;;;;;;10.88;5.65;;;;;;;;;;6246517;23;20004;-71
2021/07/14 02:44:40;;;;;;;10.07;6.18;;;;;;;;;;6244912;23;20019;-73
2021/07/14 02:47:07;;;;;;;7.90;5.15;;;;;;;;;;6244785;23;20441;-75
2021/07/14 02:49:36;;;;;;;7.80;5.25;;;;;;;;;;6244799;23;20429;-73
2021/07/14 02:52:03;;;;;;;9.70;5.57;;;;;;;;;;6244850;23;20091;-72
2021/07/14 02:54:30;;;;;;;11.07;5.60;;;;;;;;;;6246482;23;20402;-72
2021/07/14 02:57:01;;;;;;;9.23;5.50;;;;;;;;;;6246323;23;20004;-72
2021/07/14 02:59:32;;;;;;;9.13;5.38;;;;;;;;;;6244601;23;20008;-72
2021/07/14 03:02:00;;;;;;;7.97;5.30;;;;;;;;;;6246300;23;20016;-72
2021/07/14 03:04:28;;;;;;;11.05;5.53;;;;;;;;;;6244814;23;20027;-72
2021/07/14 03:06:55;;;;;;;8.88;5.78;;;;;;;;;;6244659;23;20004;-72
2021/07/14 03:09:31;;;;;;;12.10;5.97;;;;;;;;;;6244420;23;20000;-72
2021/07/14 03:11:57;;;;;;;9.93;5.88;;;;;;;;;;6244711;23;20012;-75
2021/07/14 03:14:23;;;;;;;11.13;5.82;;;;;;;;;;6244682;23;20007;-73
2021/07/14 03:16:50;;;;;;;14.23;5.80;;;;;;;;;;6246238;23;20012;-73
2021/07/14 03:19:16;;;;;;;8.00;5.47;;;;;;;;;;6246273;23;20031;-72
2021/07/14 03:21:43;;;;;;;8.48;5.90;;;;;;;;;;6244456;23;20027;-72
2021/07/14 03:24:10;;;;;;;11.73;5.25;;;;;;;;;;6246245;23;20035;-72
2021/07/14 03:26:38;;;;;;;9.68;5.82;;;;;;;;;;6246480;23;20019;-71
2021/07/14 03:29:05;;;;;;;11.90;6.45;;;;;;;;;;6244560;23;20039;-72
2021/07/14 03:31:32;;;;;;;9.05;6.07;;;;;;;;;;6245938;23;20015;-72
2021/07/14 03:33:59;;;;;;;10.00;6.25;;;;;;;;;;6245889;23;20414;-74
2021/07/14 03:36:26;;;;;;;10.23;5.97;;;;;;;;;;6218818;23;20795;-73
2021/07/14 03:38:53;;;;;;;10.75;5.78;;;;;;;;;;6219249;23;20004;-73
2021/07/14 03:41:19;;;;;;;16.00;6.05;;;;;;;;;;6219254;23;20004;-73
2021/07/14 03:43:46;;;;;;;11.70;6.20;;;;;;;;;;6219128;23;20008;-72
2021/07/14 03:46:12;;;;;;;14.52;6.18;;;;;;;;;;6246212;23;20001;-72
2021/07/14 03:48:39;;;;;;;15.00;6.15;;;;;;;;;;6246255;23;20004;-72
2021/07/14 03:51:06;;;;;;;14.07;6.45;;;;;;;;;;6245951;23;20016;-72
2021/07/14 03:53:32;;;;;;;17.60;6.32;;;;;;;;;;6245710;23;20023;-72
2021/07/14 03:55:59;;;;;;;17.85;6.45;;;;;;;;;;6245886;23;20350;-72
2021/07/14 03:58:26;;;;;;;13.93;6.35;;;;;;;;;;6246218;23;20360;-72
2021/07/14 04:00:53;;;;;;;12.38;6.97;;;;;;;;;;6246227;23;20008;-73
2021/07/14 04:03:25;;;;;;;14.48;6.90;;;;;;;;;;6245680;23;20005;-72
2021/07/14 04:05:59;;;;;;;10.50;7.20;;;;;;;;;;6219167;23;20091;-72
2021/07/14 04:08:28;;;;;;;10.48;6.78;;;;;;;;;;6219028;23;20437;-72
2021/07/14 04:10:55;;;;;;;10.23;6.20;;;;;;;;;;6220203;23;20012;-72
2021/07/14 04:13:21;;;;;;;11.63;7.20;;;;;;;;;;6247763;23;20004;-72
2021/07/14 04:15:47;;;;;;;13.80;6.60;;;;;;;;;;6247887;23;20015;-72
2021/07/14 04:18:14;;;;;;;12.65;4.70;;;;;;;;;;6247530;23;20403;-72
2021/07/14 04:20:41;;;;;;;11.57;3.63;;;;;;;;;;6248319;23;20026;-72
2021/07/14 04:23:09;;;;;;;8.45;3.35;;;;;;;;;;6247751;23;20007;-72
2021/07/14 04:25:36;;;;;;;12.88;4.18;;;;;;;;;;6247906;23;20008;-73
2021/07/14 04:28:02;;;;;;;15.20;4.15;;;;;;;;;;6247867;23;20004;-73
2021/07/14 04:30:28;;;;;;;7.32;2.88;;;;;;;;;;6220777;23;20012;-73
2021/07/14 04:32:55;;;;;;;10.35;3.22;;;;;;;;;;6221001;23;20454;-72
2021/07/14 04:35:21;;;;;;;5.68;2.85;;;;;;;;;;6247515;23;20058;-71
2021/07/14 04:37:49;;;;;;;5.95;3.00;;;;;;;;;;6220565;23;20036;-72
2021/07/14 04:40:16;;;;;;;5.32;2.85;;;;;;;;;;6247640;23;20023;-71
2021/07/14 04:42:42;;;;;;;7.97;3.17;;;;;;;;;;6248024;23;20027;-72
2021/07/14 04:45:09;;;;;;;7.60;2.70;;;;;;;;;;6247888;23;20003;-71
2021/07/14 04:47:35;;;;;;;11.88;2.95;;;;;;;;;;6247612;23;20425;-72
2021/07/14 04:50:01;;;;;;;5.47;2.85;;;;;;;;;;6246969;23;20447;-72
2021/07/14 04:52:27;;;;;;;11.38;2.95;;;;;;;;;;6247718;23;20000;-71
2021/07/14 04:54:53;;;;;;;12.68;3.15;;;;;;;;;;6247782;23;20085;-73
2021/07/14 04:57:20;;;;;;;5.57;2.92;;;;;;;;;;6220663;23;20083;-72
2021/07/14 04:59:46;;;;;;;8.13;3.47;;;;;;;;;;6220347;23;20012;-72
2021/07/14 05:02:12;;;;;;;8.23;2.80;;;;;;;;;;6247355;23;20394;-72
2021/07/14 05:04:38;;;;;;;5.53;2.80;;;;;;;;;;6220128;23;20004;-72
2021/07/14 05:07:04;;;;;;;11.35;3.20;;;;;;;;;;6220279;23;20011;-72
2021/07/14 05:09:30;;;;;;;5.53;2.80;;;;;;;;;;6246999;23;20009;-70
2021/07/14 05:11:57;;;;;;;6.47;3.05;;;;;;;;;;6247421;23;20091;-72
2021/07/14 05:14:23;;;;;;;4.30;2.90;;;;;;;;;;6253487;23;20032;-90
2021/07/14 05:16:49;;;;;;;4.95;2.60;;;;;;;;;;6221326;23;20008;-87
2021/07/14 05:19:16;;;;;;;6.85;3.40;;;;;;;;;;6221939;23;20007;-89
2021/07/14 05:21:43;;;;;;;4.07;2.80;;;;;;;;;;6251792;23;20329;-91
2021/07/14 05:24:09;;;;;;;4.88;3.00;;;;;;;;;;6223786;23;20097;-93
2021/07/14 05:26:36;;;;;;;4.75;3.35;;;;;;;;;;6222957;23;20004;-90
2021/07/14 05:29:02;;;;;;;5.88;3.85;;;;;;;;;;6221973;23;19988;-91
2021/07/14 05:31:28;;;;;;;6.05;3.40;;;;;;;;;;6221412;23;20094;-90
2021/07/14 05:33:54;;;;;;;5.93;3.63;;;;;;;;;;6221054;23;19996;-90
2021/07/14 05:36:20;;;;;;;5.57;3.88;;;;;;;;;;6249006;23;20015;-95
2021/07/14 05:38:46;;;;;;;6.40;3.80;;;;;;;;;;6229032;23;20014;-78
2021/07/14 05:41:13;;;;;;;5.32;3.60;;;;;;;;;;6220271;23;20074;-67
2021/07/14 05:43:40;;;;;;;5.65;2.85;;;;;;;;;;6247574;23;20396;-67
2021/07/14 05:46:06;;;;;;;3.08;2.00;;;;;;;;;;6247210;23;20004;-71
2021/07/14 05:48:33;;;;;;;2.85;1.88;;;;;;;;;;6247072;23;20015;-70
2021/07/14 05:50:59;;;;;;;3.72;2.08;;;;;;;;;;6247092;23;20089;-68
2021/07/14 05:53:26;;;;;;;8.88;2.22;;;;;;;;;;6220335;23;20461;-68
2021/07/14 05:55:52;;;;;;;6.47;2.47;;;;;;;;;;6219868;23;20062;-69
2021/07/14 05:58:18;;;;;;;7.18;2.42;;;;;;;;;;6246820;23;20365;-70
2021/07/14 06:00:45;;;;;;;8.95;2.35;;;;;;;;;;6220224;23;20008;-68
2021/07/14 06:03:11;;;;;;;5.03;2.20;;;;;;;;;;6246953;23;19996;-68
2021/07/14 06:05:38;;;;;;;4.28;2.28;;;;;;;;;;6246945;23;20000;-68
2021/07/14 06:08:04;;;;;;;9.52;2.78;;;;;;;;;;6247880;23;20425;-72
2021/07/14 06:10:30;;;;;;;6.30;2.47;;;;;;;;;;6219949;23;20333;-68
2021/07/14 06:12:59;;;;;;;6.50;2.58;;;;;;;;;;6247851;23;20008;-67
2021/07/14 06:15:26;;;;;;;5.25;2.65;;;;;;;;;;6246876;23;20073;-78
2021/07/14 06:17:52;;;;;;;4.38;2.08;;;;;;;;;;6245288;23;20058;-71
2021/07/14 06:20:19;;;;;;;4.43;2.25;;;;;;;;;;6219287;23;20135;-74
2021/07/14 06:22:45;;;;;;;3.13;1.90;;;;;;;;;;6219746;23;20031;-75
2021/07/14 06:25:12;;;;;;;4.75;2.22;;;;;;;;;;6246550;23;20000;-86
2021/07/14 06:27:39;;;;;;;4.38;1.85;;;;;;;;;;6220025;23;20010;-81
2021/07/14 06:30:09;;;;;;;4.78;1.75;;;;;;;;;;6247744;23;20022;-81
2021/07/14 06:32:35;;;;;;;8.23;1.77;;;;;;;;;;6220664;23;20084;-86
2021/07/14 06:35:02;;;;;;;5.13;2.00;;;;;;;;;;6230737;23;20319;-82
2021/07/14 06:37:28;;;;;;;2.83;1.50;;;;;;;;;;6246012;23;20004;-82
2021/07/14 06:39:57;;;;;;;4.75;1.30;;;;;;;;;;6246776;23;20020;-81
2021/07/14 06:42:24;;;;;;;3.20;1.50;;;;;;;;;;6245421;23;20083;-83
2021/07/14 06:44:50;;;;;;;2.75;1.50;;;;;;;;;;6246102;23;20004;-74
2021/07/14 06:47:17;;;;;;;3.20;1.58;;;;;;;;;;6245164;23;20457;-74
2021/07/14 06:49:43;;;;;;;5.57;1.77;;;;;;;;;;6244977;23;20005;-75
2021/07/14 06:52:10;;;;;;;9.18;1.50;;;;;;;;;;6247343;23;20012;-74
2021/07/14 06:54:38;;;;;;;2.40;1.17;;;;;;;;;;6246709;23;20004;-82
2021/07/14 06:57:07;;;;;;;3.92;1.85;;;;;;;;;;6245355;23;20410;-83
2021/07/14 06:59:34;;;;;;;3.25;1.42;;;;;;;;;;6245568;23;20004;-75
2021/07/14 07:02:04;;;;;;;3.88;1.30;;;;;;;;;;6246907;23;20079;-75
2021/07/14 07:04:30;;;;;;;5.63;1.85;;;;;;;;;;6245020;23;20024;-75
2021/07/14 07:06:57;;;;;;;2.22;1.13;;;;;;;;;;6246517;23;20008;-75
2021/07/14 07:09:23;;;;;;;5.38;1.60;;;;;;;;;;6246360;23;20004;-75
2021/07/14 07:11:50;;;;;;;3.60;1.38;;;;;;;;;;6244967;23;20011;-75
2021/07/14 07:14:16;;;;;;;5.85;1.38;;;;;;;;;;6246657;23;20012;-82
2021/07/14 07:16:43;;;;;;;4.78;1.33;;;;;;;;;;6244996;23;20008;-75
2021/07/14 07:19:09;;;;;;;4.47;1.20;;;;;;;;;;6247260;23;20428;-75
2021/07/14 07:21:36;;;;;;;2.70;1.20;;;;;;;;;;6247266;23;20027;-83
2021/07/14 07:24:02;;;;;;;2.58;1.23;;;;;;;;;;6247630;23;19997;-84
2021/07/14 07:26:29;;;;;;;2.72;1.55;;;;;;;;;;6246776;22;20047;-83
2021/07/14 07:29:03;;;;;;;4.57;1.33;;;;;;;;;;6245460;23;20023;-75
2021/07/14 07:31:29;;;;;;;4.03;1.30;;;;;;;;;;6244724;23;20441;-75
2021/07/14 07:33:55;;;;;;;4.40;1.30;;;;;;;;;;6246064;23;20000;-76
2021/07/14 07:36:22;;;;;;;5.28;1.23;;;;;;;;;;6219439;23;20016;-75
2021/07/14 07:38:48;;;;;;;3.58;1.13;;;;;;;;;;6247023;23;20365;-85
2021/07/14 07:41:15;;;;;;;2.83;1.30;;;;;;;;;;6247937;23;20007;-85
2021/07/14 07:43:42;;;;;;;10.07;1.40;;;;;;;;;;6220263;23;20015;-82
2021/07/14 07:46:09;;;;;;;4.22;0.98;;;;;;;;;;6248629;23;20000;-84
2021/07/14 07:48:36;;;;;;;3.90;1.20;;;;;;;;;;6222114;23;20015;-75
2021/07/14 07:51:04;;;;;;;3.65;1.33;;;;;;;;;;6221477;23;20050;-84
2021/07/14 07:53:30;;;;;;;8.15;1.77;;;;;;;;;;6248598;23;20004;-84
2021/07/14 07:55:57;;;;;;;2.78;1.00;;;;;;;;;;6221889;23;20081;-75
2021/07/14 07:58:23;;;;;;;3.40;1.30;;;;;;;;;;6248286;23;20001;-75
2021/07/14 08:00:50;;;;;;;4.88;1.42;;;;;;;;;;6248586;23;20004;-75
2021/07/14 08:03:16;;;;;;;5.88;1.30;;;;;;;;;;6248344;23;20011;-84
2021/07/14 08:05:43;;;;;;;2.78;1.02;;;;;;;;;;6248395;23;20004;-84
2021/07/14 08:08:10;;;;;;;3.25;1.48;;;;;;;;;;6222454;23;20008;-84
2021/07/14 08:10:37;;;;;;;3.30;1.30;;;;;;;;;;6222488;23;20020;-75
2021/07/14 08:13:04;;;;;;;4.53;1.67;;;;;;;;;;6248199;23;20075;-75
2021/07/14 08:15:30;;;;;;;6.97;1.33;;;;;;;;;;6248797;23;20005;-75
2021/07/14 08:17:57;;;;;;;4.10;1.30;;;;;;;;;;6248408;23;20057;-84
2021/07/14 08:20:23;;;;;;;4.72;1.40;;;;;;;;;;6221670;23;20087;-75
2021/07/14 08:22:54;;;;;;;3.33;1.38;;;;;;;;;;6248072;23;20091;-75
2021/07/14 08:25:20;;;;;;;6.18;1.50;;;;;;;;;;6248415;23;20000;-75
2021/07/14 08:27:47;;;;;;;7.63;1.40;;;;;;;;;;6248146;23;20500;-75
2021/07/14 08:30:14;;;;;;;4.63;1.50;;;;;;;;;;6247913;23;20047;-75
2021/07/14 08:32:40;;;;;;;7.80;1.58;;;;;;;;;;6248102;23;20492;-85
2021/07/14 08:35:08;;;;;;;4.97;1.77;;;;;;;;;;6232347;23;20027;-83
2021/07/14 08:37:34;;;;;;;6.88;1.67;;;;;;;;;;6247258;23;20356;-83
2021/07/14 08:40:01;;;;;;;3.45;1.42;;;;;;;;;;6246460;23;20004;-84
2021/07/14 08:42:27;;;;;;;2.17;1.13;;;;;;;;;;6247032;23;20028;-75
2021/07/14 08:44:54;;;;;;;7.75;1.70;;;;;;;;;;6247898;23;20007;-75
2021/07/14 08:47:21;;;;;;;6.18;1.30;;;;;;;;;;6247914;23;20075;-75
2021/07/14 08:49:49;;;;;;;5.90;1.60;;;;;;;;;;6247693;23;20075;-75
2021/07/14 08:52:17;;;;;;;5.22;1.20;;;;;;;;;;6246268;23;20422;-75
2021/07/14 08:54:45;;;;;;;2.55;1.20;;;;;;;;;;6247715;23;20008;-75
2021/07/14 08:57:13;;;;;;;6.53;1.83;;;;;;;;;;6245798;23;20014;-75
2021/07/14 08:59:39;;;;;;;6.20;1.88;;;;;;;;;;6248434;23;20471;-75
2021/07/14 09:02:06;;;;;;;6.50;1.83;;;;;;;;;;6247660;23;20342;-75
2021/07/14 09:04:33;;;;;;;7.32;1.67;;;;;;;;;;6247639;23;19996;-75
2021/07/14 09:06:59;;;;;;;5.60;1.60;;;;;;;;;;6248381;23;20326;-75
2021/07/14 09:09:25;;;;;;;5.45;1.42;;;;;;;;;;6248213;23;20094;-75
2021/07/14 09:11:59;;;;;;;5.60;1.75;;;;;;;;;;6247647;23;20008;-75
2021/07/14 09:14:33;;;;;;;5.22;1.90;;;;;;;;;;6248247;23;20027;-75
2021/07/14 09:17:00;;;;;;;7.30;2.03;;;;;;;;;;6247521;23;20037;-75
2021/07/14 09:19:28;;;;;;;6.78;1.67;;;;;;;;;;6247469;23;20004;-75
2021/07/14 09:21:54;;;;;;;3.90;1.63;;;;;;;;;;6247380;23;20004;-75
2021/07/14 09:24:41;;;;;;;6.72;2.20;;;;;;;;;;6247365;23;20000;-75
2021/07/14 09:27:16;;;;;;;5.47;1.90;;;;;;;;;;6245793;23;20016;-75
2021/07/14 09:30:03;;;;;;;6.18;1.83;;;;;;;;;;6247520;23;20008;-83
2021/07/14 09:32:43;;;;;;;6.38;1.92;;;;;;;;;;6246312;23;20083;-84
2021/07/14 09:35:10;;;;;;;8.18;2.05;;;;;;;;;;6246032;23;20412;-84
2021/07/14 09:37:39;;;;;;;5.00;1.50;;;;;;;;;;6246689;23;20030;-83
2021/07/14 09:40:26;;;;;;;3.00;1.45;;;;;;;;;;6246256;23;20087;-84
2021/07/14 09:43:00;;;;;;;4.63;1.83;;;;;;;;;;6246199;23;20012;-84
2021/07/14 09:45:45;;;;;;;12.73;2.60;;;;;;;;;;6247223;23;20398;-75
2021/07/14 09:48:12;;;;;;;7.75;2.65;;;;;;;;;;6245702;23;20031;-75
2021/07/14 09:50:41;;;;;;;10.38;2.85;;;;;;;;;;6247094;23;20008;-75
2021/07/14 09:53:12;;;;;;;3.80;2.60;;;;;;;;;;6245630;23;20010;-84
2021/07/14 09:55:40;;;;;;;8.88;2.83;;;;;;;;;;6246733;23;20004;-84
2021/07/14 09:58:10;;;;;;;9.23;2.40;;;;;;;;;;6248002;23;20079;-85
2021/07/14 10:00:40;;;;;;;5.05;2.63;;;;;;;;;;6245866;23;20079;-85
2021/07/14 10:03:07;;;;;;;5.70;2.80;;;;;;;;;;6248123;23;20058;-75
2021/07/14 10:05:34;;;;;;;7.15;3.05;;;;;;;;;;6247473;23;20011;-75
2021/07/14 10:08:16;;;;;;;5.53;2.40;;;;;;;;;;6246551;23;19996;-75
2021/07/14 10:10:42;;;;;;;7.80;2.90;;;;;;;;;;6245509;23;20499;-85
2021/07/14 10:13:09;;;;;;;6.25;2.90;;;;;;;;;;6245918;23;20361;-84
2021/07/14 10:15:36;;;;;;;5.45;2.47;;;;;;;;;;6246606;23;20425;-85
2021/07/14 10:18:02;;;;;;;6.72;2.83;;;;;;;;;;6245667;23;20430;-75
2021/07/14 10:20:34;;;;;;;7.13;2.70;;;;;;;;;;6247889;23;20046;-85
2021/07/14 10:23:21;;;;;;;7.88;3.13;;;;;;;;;;6245676;23;20000;-85
2021/07/14 10:25:48;;;;;;;8.40;3.15;;;;;;;;;;6245882;23;20007;-84
2021/07/14 10:28:22;;;;;;;13.52;3.63;;;;;;;;;;6245223;23;20008;-72
2021/07/14 10:30:52;;;;;;;7.25;3.45;;;;;;;;;;6247329;23;20078;-75
2021/07/14 10:33:19;;;;;;;5.72;3.08;;;;;;;;;;6245241;23;20004;-75
2021/07/14 10:35:46;;;;;;;7.25;3.42;;;;;;;;;;6246628;23;20337;-75
2021/07/14 10:38:17;;;;;;;6.72;3.67;;;;;;;;;;6246835;23;20003;-75
2021/07/14 10:40:45;;;;;;;7.80;3.58;;;;;;;;;;6219552;23;20039;-74
2021/07/14 10:43:13;;;;;;;7.38;3.85;;;;;;;;;;6246678;23;20000;-75
2021/07/14 10:45:40;;;;;;;10.35;4.30;;;;;;;;;;6246421;23;20008;-75
2021/07/14 10:48:06;;;;;;;9.07;4.55;;;;;;;;;;6219717;23;20004;-81
2021/07/14 10:50:32;;;;;;;9.10;4.88;;;;;;;;;;6219765;23;20012;-81
2021/07/14 10:52:59;;;;;;;10.57;4.75;;;;;;;;;;6219707;23;20004;-80
2021/07/14 10:55:27;;;;;;;7.93;4.65;;;;;;;;;;6219842;23;20059;-82
2021/07/14 10:57:54;;;;;;;11.85;5.40;;;;;;;;;;6219751;23;20035;-82
2021/07/14 11:00:21;;;;;;;8.25;5.13;;;;;;;;;;6246552;23;20018;-75
2021/07/14 11:02:51;;;;;;;10.57;4.40;;;;;;;;;;6246217;23;20031;-71
2021/07/14 11:05:31;;;;;;;10.13;4.70;;;;;;;;;;6246579;23;20008;-75
2021/07/14 11:07:57;;;;;;;7.55;4.68;;;;;;;;;;6219636;23;20446;-71
2021/07/14 11:10:28;;;;;;;13.68;4.82;;;;;;;;;;6219457;23;20012;-72
2021/07/14 11:12:58;;;;;;;9.45;5.00;;;;;;;;;;6219712;23;20004;-71
2021/07/14 11:15:32;;;;;;;10.23;4.97;;;;;;;;;;6246447;23;20345;-71
2021/07/14 11:17:58;;;;;;;7.97;5.20;;;;;;;;;;6246888;23;20000;-72
2021/07/14 11:20:36;;;;;;;6.50;4.10;;;;;;;;;;6247185;23;20008;-70
2021/07/14 11:23:16;;;;;;;10.52;4.88;;;;;;;;;;6219661;23;20012;-76
2021/07/14 11:25:47;;;;;;;9.73;4.78;;;;;;;;;;6219915;23;20004;-76
2021/07/14 11:28:13;;;;;;;13.73;5.10;;;;;;;;;;6219568;23;20011;-70
2021/07/14 11:30:46;;;;;;;7.20;4.80;;;;;;;;;;6246894;23;20019;-70
2021/07/14 11:33:25;;;;;;;8.45;4.80;;;;;;;;;;6246404;23;20008;-71
2021/07/14 11:35:53;;;;;;;9.77;5.03;;;;;;;;;;6239484;23;20024;-72
2021/07/14 11:38:24;;;;;;;14.52;4.90;;;;;;;;;;6244765;23;20009;-71
2021/07/14 11:40:51;;;;;;;12.85;4.82;;;;;;;;;;6246287;23;20007;-80
2021/07/14 11:43:19;;;;;;;10.57;5.00;;;;;;;;;;6244709;23;20087;-72
2021/07/14 11:45:47;;;;;;;7.60;4.18;;;;;;;;;;6244311;23;20448;-73
2021/07/14 11:48:15;;;;;;;22.35;5.40;;;;;;;;;;6246263;23;20019;-71
2021/07/14 11:53:46;;;;;;;8.52;5.28;;;;;;;;;;6246447;23;20009;-75
2021/07/14 11:56:14;;;;;;;10.20;5.22;;;;;;;;;;6245752;23;20009;-74
2021/07/14 11:58:44;;;;;;;10.60;5.95;;;;;;;;;;6246903;23;20101;-77
2021/07/14 12:01:10;;;;;;;9.48;5.75;;;;;;;;;;6246871;23;20008;-79
2021/07/14 12:03:36;;;;;;;10.73;5.40;;;;;;;;;;6246279;23;20000;-81
2021/07/14 12:06:04;;;;;;;8.55;5.45;;;;;;;;;;6244621;23;20008;-81
2021/07/14 12:08:37;;;;;;;7.80;4.75;;;;;;;;;;6246911;23;20093;-81
2021/07/14 12:11:03;;;;;;;9.15;5.20;;;;;;;;;;6244363;23;20019;-82
2021/07/14 12:13:29;;;;;;;10.68;5.32;;;;;;;;;;6246197;23;20004;-76
2021/07/14 12:15:55;;;;;;;10.50;5.18;;;;;;;;;;6244234;23;20008;-76
2021/07/14 12:18:21;;;;;;;11.70;5.72;;;;;;;;;;6244193;23;20050;-76
2021/07/14 12:20:49;;;;;;;12.77;6.57;;;;;;;;;;6244745;23;20418;-77
2021/07/14 12:23:15;;;;;;;10.85;6.80;;;;;;;;;;6246111;23;20000;-76
2021/07/14 12:25:42;;;;;;;10.98;6.32;;;;;;;;;;6246187;23;20433;-76
2021/07/14 12:28:17;;;;;;;11.20;6.85;;;;;;;;;;6246086;23;20001;-75
2021/07/14 12:30:45;;;;;;;12.07;6.22;;;;;;;;;;6246343;23;20012;-75
2021/07/14 12:33:17;;;;;;;11.65;6.55;;;;;;;;;;6248022;23;20329;-74
2021/07/14 12:35:43;;;;;;;14.68;6.75;;;;;;;;;;6247752;23;20044;-75
2021/07/14 12:38:14;;;;;;;12.00;6.68;;;;;;;;;;6221159;23;20091;-74
2021/07/14 12:40:51;;;;;;;11.63;7.25;;;;;;;;;;6221106;23;20015;-74
2021/07/14 12:43:21;;;;;;;12.70;6.32;;;;;;;;;;6247928;23;20011;-74
2021/07/14 12:45:48;;;;;;;9.30;6.70;;;;;;;;;;6220430;23;20012;-74
2021/07/14 12:48:21;;;;;;;9.68;6.93;;;;;;;;;;6221885;23;20000;-75
2021/07/14 12:50:48;;;;;;;12.23;6.55;;;;;;;;;;6247683;23;20016;-76
2021/07/14 12:53:15;;;;;;;11.05;6.95;;;;;;;;;;6247862;23;20026;-75
2021/07/14 12:55:42;;;;;;;9.27;6.63;;;;;;;;;;6220951;23;20035;-80
2021/07/14 12:58:08;;;;;;;13.30;6.65;;;;;;;;;;6247707;23;20000;-81
2021/07/14 13:00:36;;;;;;;9.65;6.90;;;;;;;;;;6220848;23;20015;-79
2021/07/14 13:03:03;;;;;;;9.35;6.88;;;;;;;;;;6247702;23;19996;-75
2021/07/14 13:05:29;;;;;;;12.07;7.93;;;;;;;;;;6247674;23;20007;-74
2021/07/14 13:08:00;;;;;;;11.18;7.88;;;;;;;;;;6220760;23;20008;-80
2021/07/14 13:10:27;;;;;;;10.68;7.47;;;;;;;;;;6220680;23;20020;-75
2021/07/14 13:12:57;;;;;;;9.10;6.55;;;;;;;;;;6220741;23;20004;-81
2021/07/14 13:15:27;;;;;;;15.95;7.68;;;;;;;;;;6246816;23;20000;-79
2021/07/14 13:18:09;;;;;;;19.20;8.30;;;;;;;;;;6220811;23;20326;-75
2021/07/14 13:20:43;;;;;;;13.60;7.72;;;;;;;;;;6221641;23;20008;-76
2021/07/14 13:23:10;;;;;;;13.15;8.32;;;;;;;;;;6220848;23;20062;-80
2021/07/14 13:25:43;;;;;;;13.20;8.48;;;;;;;;;;6247590;23;20000;-82
2021/07/14 13:28:18;;;;;;;14.85;8.18;;;;;;;;;;6220764;23;20004;-81
2021/07/14 13:30:48;;;;;;;33.22;8.77;;;;;;;;;;6247715;23;20377;-76
2021/07/14 13:33:17;;;;;;;19.15;8.63;;;;;;;;;;6220647;23;20007;-79
2021/07/14 13:35:48;;;;;;;12.43;7.75;;;;;;;;;;6238923;23;20024;-78
2021/07/14 13:38:32;;;;;;;11.70;7.90;;;;;;;;;;6245862;23;20095;-75
2021/07/14 13:41:11;;;;;;;17.35;8.80;;;;;;;;;;6247350;23;20079;-79
2021/07/14 13:43:40;;;;;;;12.93;8.52;;;;;;;;;;6245635;23;20004;-80
2021/07/14 13:46:07;;;;;;;12.43;8.48;;;;;;;;;;6245734;23;20026;-79
2021/07/14 13:48:35;;;;;;;13.85;9.02;;;;;;;;;;6247719;23;20027;-79
2021/07/14 13:51:01;;;;;;;15.15;8.63;;;;;;;;;;6245491;23;20095;-80
2021/07/14 13:53:33;;;;;;;15.50;9.00;;;;;;;;;;6247391;23;20004;-78
2021/07/14 13:56:06;;;;;;;11.80;8.77;;;;;;;;;;6245676;23;20008;-82
2021/07/14 13:58:32;;;;;;;;;;;;;;;;;;6246145;23;20012;-77
2021/07/14 14:01:02;;;;;;;15.43;8.35;;;;;;;;;;6245612;23;19947;-79
2021/07/14 14:03:28;;;;;;;15.70;9.15;;;;;;;;;;6245603;23;20007;-81
2021/07/14 14:06:07;;;;;;;13.18;8.63;;;;;;;;;;6245544;23;20137;-80
2021/07/14 14:08:33;;;;;;;11.70;8.35;;;;;;;;;;6245618;23;20004;-80
2021/07/14 14:11:09;;;;;;;12.88;8.38;;;;;;;;;;6245722;23;20310;-78
2021/07/14 14:13:36;;;;;;;14.05;8.98;;;;;;;;;;6245621;23;20360;-80
2021/07/14 14:16:02;;;;;;;11.65;8.48;;;;;;;;;;6247279;23;20027;-80
2021/07/14 14:18:28;;;;;;;13.27;8.82;;;;;;;;;;6246998;23;20329;-81
2021/07/14 14:20:54;;;;;;;16.08;9.13;;;;;;;;;;6247291;23;20015;-79
2021/07/14 14:23:21;;;;;;;14.50;9.35;;;;;;;;;;6245426;23;20004;-78
2021/07/14 14:25:53;;;;;;;12.90;8.88;;;;;;;;;;6246978;23;20004;-82
2021/07/14 14:28:24;;;;;;;15.07;10.07;;;;;;;;;;6245533;23;20004;-80
2021/07/14 14:30:53;;;;;;;18.33;10.20;;;;;;;;;;6245341;23;20259;-79
2021/07/14 14:33:19;;;;;;;20.63;10.02;;;;;;;;;;6246776;23;20030;-80
2021/07/14 14:35:46;;;;;;;19.33;9.45;;;;;;;;;;6245360;23;20441;-80
2021/07/14 14:38:14;;;;;;;15.70;10.00;;;;;;;;;;6245264;23;20051;-81
2021/07/14 14:40:42;;;;;;;19.08;9.90;;;;;;;;;;6247044;23;20016;-79
2021/07/14 14:43:09;;;;;;;14.18;10.20;;;;;;;;;;6246114;23;20374;-78
2021/07/14 14:45:35;;;;;;;14.95;10.32;;;;;;;;;;6245185;23;20389;-77
2021/07/14 14:48:01;;;;;;;18.42;10.55;;;;;;;;;;6246692;23;20031;-76
2021/07/14 14:50:27;;;;;;;18.45;10.80;;;;;;;;;;6244812;23;20098;-74